Time;durP1;ratioP1;P1;durP2;ratioP2;P2;SDS_P1;SDS_P2;PMS_P1;PMS_P2;Temp;Humidity;BMP_temperature;BMP_pressure;BME280_temperature;BME280_humidity;BME280_pressure;Samples;Min_cycle;Max_cycle;Signal;HPM_P1;HPM_P2
2022/05/26 00:01:53;;;;;;;6.85;4.90;;;;;;;15.88;74.35;101754.66;5018500;28;20045;-73
2022/05/26 00:04:19;;;;;;;7.70;5.20;;;;;;;15.83;74.55;101767.50;5022936;28;20022;-73
2022/05/26 00:06:44;;;;;;;7.50;5.15;;;;;;;15.82;75.03;101755.41;5020913;28;20092;-72
2022/05/26 00:09:09;;;;;;;7.20;4.80;;;;;;;15.79;74.85;101751.03;5023562;28;20462;-72
2022/05/26 00:11:37;;;;;;;5.55;4.78;;;;;;;15.79;75.04;101752.75;5018862;28;20052;-72
2022/05/26 00:14:09;;;;;;;7.03;5.20;;;;;;;15.78;75.27;101748.41;5022935;28;20030;-72
2022/05/26 00:16:41;;;;;;;6.40;4.60;;;;;;;15.74;75.14;101756.97;5024061;28;20052;-72
2022/05/26 00:19:06;;;;;;;6.65;4.50;;;;;;;15.78;75.01;101762.25;5020888;28;20454;-72
2022/05/26 00:21:32;;;;;;;7.05;4.97;;;;;;;15.76;75.32;101761.31;5024124;28;20117;-72
2022/05/26 00:23:58;;;;;;;7.20;4.72;;;;;;;15.81;74.83;101766.63;5016770;28;20498;-72
2022/05/26 00:26:24;;;;;;;8.30;4.70;;;;;;;15.79;75.45;101764.00;5018205;28;20034;-72
2022/05/26 00:28:50;;;;;;;10.20;4.50;;;;;;;15.81;75.16;101764.03;5023840;28;20033;-72
2022/05/26 00:31:16;;;;;;;6.78;4.25;;;;;;;15.84;75.14;101755.44;5022296;28;20143;-72
2022/05/26 00:33:42;;;;;;;7.80;4.40;;;;;;;15.80;75.20;101757.09;5022199;28;20030;-72
2022/05/26 00:36:11;;;;;;;9.70;4.90;;;;;;;15.81;75.16;101764.03;5019879;28;20045;-72
2022/05/26 00:38:37;;;;;;;8.88;4.80;;;;;;;15.81;75.36;101767.50;5023208;28;20479;-72
2022/05/26 00:41:08;;;;;;;8.23;4.68;;;;;;;15.75;75.45;101764.75;5015827;28;20437;-72
2022/05/26 00:43:34;;;;;;;8.48;4.60;;;;;;;15.78;75.43;101772.63;5021451;28;20035;-72
2022/05/26 00:45:59;;;;;;;8.88;4.60;;;;;;;15.80;75.12;101770.06;5025239;28;20030;-72
2022/05/26 00:48:39;;;;;;;11.55;4.70;;;;;;;15.78;75.27;101758.78;5023177;28;20072;-72
2022/05/26 00:51:05;;;;;;;9.48;4.70;;;;;;;15.79;75.34;101765.72;5021904;28;20029;-72
2022/05/26 00:53:38;;;;;;;7.60;4.60;;;;;;;15.79;75.22;101765.72;5025112;28;20026;-73
2022/05/26 00:56:45;;;;;;;9.77;4.70;;;;;;;15.83;74.83;101762.31;5024597;28;20025;-73
2022/05/26 00:59:18;;;;;;;9.90;4.93;;;;;;;15.78;75.47;101763.97;5017992;28;20510;-73
2022/05/26 01:01:44;;;;;;;9.27;5.10;;;;;;;15.76;75.46;101763.03;5018627;28;20033;-72
2022/05/26 01:04:16;;;;;;;11.95;4.85;;;;;;;15.81;75.48;101764.03;5012797;28;20172;-72
2022/05/26 01:07:00;;;;;;;11.45;5.60;;;;;;;15.80;75.47;101767.47;5011982;28;20037;-72
2022/05/26 01:09:25;;;;;;;10.00;4.82;;;;;;;15.73;75.70;101758.69;5018223;28;20044;-72
2022/05/26 01:11:51;;;;;;;9.63;4.97;;;;;;;15.72;76.04;101769.91;5018187;28;20509;-72
2022/05/26 01:14:30;;;;;;;10.05;4.97;;;;;;;15.75;75.80;101766.50;5020428;28;20061;-72
2022/05/26 01:17:04;;;;;;;;;;;;;;;15.92;74.25;101772.03;5017455;28;20053;-73
2022/05/26 01:20:15;;;;;;;9.88;5.47;;;;;;;15.79;75.46;101770.91;5014994;28;20261;-72
2022/05/26 01:23:18;;;;;;;9.95;5.32;;;;;;;15.78;75.23;101775.22;5016589;28;20136;-72
2022/05/26 01:25:58;;;;;;;11.13;5.13;;;;;;;15.74;76.09;101777.72;5020841;28;20492;-72
2022/05/26 01:28:42;;;;;;;10.27;5.22;;;;;;;15.73;75.80;101771.66;5018936;28;20434;-72
2022/05/26 01:31:51;;;;;;;11.02;5.10;;;;;;;15.76;75.50;101776.00;5022778;28;20236;-72
2022/05/26 01:34:22;;;;;;;11.85;5.55;;;;;;;15.70;76.45;101787.13;5023217;28;20045;-72
2022/05/26 01:36:54;;;;;;;11.60;5.50;;;;;;;15.72;76.17;101787.19;5018277;28;21481;-72
2022/05/26 01:39:28;;;;;;;9.77;5.55;;;;;;;15.69;76.68;101787.09;5021945;28;20088;-72
2022/05/26 01:42:15;;;;;;;12.55;5.30;;;;;;;15.68;76.59;101785.34;5014554;28;20033;-72
2022/05/26 01:45:19;;;;;;;10.88;4.93;;;;;;;15.72;76.30;101782.88;5016363;28;22393;-73
2022/05/26 01:48:04;;;;;;;10.35;5.45;;;;;;;15.64;76.99;101780.94;5016769;28;20492;-72
2022/05/26 01:50:45;;;;;;;11.50;5.75;;;;;;;15.67;76.81;101791.38;4983236;28;20047;-72
2022/05/26 01:53:44;;;;;;;14.98;6.47;;;;;;;15.68;76.46;101791.41;5019362;28;20029;-72
2022/05/26 01:56:31;;;;;;;16.13;6.35;;;;;;;15.66;76.70;101800.00;5021471;28;20341;-72
2022/05/26 01:59:07;;;;;;;11.88;6.07;;;;;;;15.60;77.50;101799.84;5024447;28;20450;-72
2022/05/26 02:01:38;;;;;;;13.10;5.93;;;;;;;15.62;77.56;101800.75;5018677;28;20021;-72
2022/05/26 02:04:13;;;;;;;13.82;5.97;;;;;;;15.61;77.19;101793.81;5026069;28;20021;-72
2022/05/26 02:06:45;;;;;;;15.43;6.53;;;;;;;15.62;77.58;101791.28;5033923;28;20037;-72
2022/05/26 02:09:23;;;;;;;11.88;6.32;;;;;;;15.63;76.96;101802.53;5022794;28;20033;-72
2022/05/26 02:12:04;;;;;;;15.98;6.90;;;;;;;15.64;77.18;101806.84;5023963;28;20049;-73
2022/05/26 02:14:36;;;;;;;14.90;6.53;;;;;;;15.59;77.54;101808.44;5027338;28;20491;-72
2022/05/26 02:17:14;;;;;;;14.45;6.80;;;;;;;15.63;77.06;101815.47;5018645;28;20047;-72
2022/05/26 02:19:46;;;;;;;15.63;6.75;;;;;;;15.62;77.34;101819.78;5026699;28;20067;-72
2022/05/26 02:22:17;;;;;;;16.02;6.72;;;;;;;15.64;77.22;101817.22;5019317;28;20053;-72
2022/05/26 02:25:17;;;;;;;12.95;6.40;;;;;;;15.67;76.73;101815.59;5023560;28;20029;-73
2022/05/26 02:27:42;;;;;;;14.77;6.85;;;;;;;15.61;77.77;101817.16;5023638;28;20029;-72
2022/05/26 02:30:09;;;;;;;17.45;7.13;;;;;;;15.60;77.62;101816.28;5021658;28;20087;-72
2022/05/26 02:32:47;;;;;;;16.88;7.22;;;;;;;15.60;77.73;101818.88;5019483;28;20021;-73
2022/05/26 02:35:35;;;;;;;17.70;8.03;;;;;;;15.65;77.21;101821.56;5025557;28;20488;-72
2022/05/26 02:38:26;;;;;;;14.32;7.05;;;;;;;15.59;77.62;101826.59;5023429;28;20852;-72
2022/05/26 02:40:53;;;;;;;16.08;8.05;;;;;;;15.60;77.69;101825.78;5020462;28;20032;-72
2022/05/26 02:43:24;;;;;;;15.43;7.88;;;;;;;15.53;78.21;101815.25;5022206;28;20049;-72
2022/05/26 02:45:57;;;;;;;14.68;7.10;;;;;;;15.59;77.86;101829.19;5022752;28;20033;-72
2022/05/26 02:48:32;;;;;;;18.60;7.43;;;;;;;15.56;77.96;101830.00;5020321;28;20029;-72
2022/05/26 02:51:06;;;;;;;15.70;7.15;;;;;;;15.55;77.83;101829.13;5019552;28;20041;-73
2022/05/26 02:53:38;;;;;;;18.88;7.85;;;;;;;15.58;77.78;101833.47;5016180;28;20029;-71
2022/05/26 02:56:32;;;;;;;15.02;7.30;;;;;;;15.62;77.23;101830.16;5021836;28;20163;-72
2022/05/26 02:59:22;;;;;;;19.05;7.57;;;;;;;15.60;77.95;101836.13;5024630;28;20029;-72
2022/05/26 03:01:58;;;;;;;19.15;7.38;;;;;;;15.62;77.92;101837.94;5016574;28;20025;-73
2022/05/26 03:04:39;;;;;;;24.80;7.93;;;;;;;15.64;77.29;101836.25;5021424;28;20456;-72
2022/05/26 03:07:12;;;;;;;20.50;7.75;;;;;;;15.55;77.97;101833.44;5022269;28;20375;-72
2022/05/26 03:09:39;;;;;;;21.67;8.45;;;;;;;15.50;78.13;101835.91;5019838;28;20464;-73
2022/05/26 03:12:21;;;;;;;19.23;7.50;;;;;;;15.59;77.40;101847.31;5022736;28;20032;-72
2022/05/26 03:14:46;;;;;;;22.95;8.27;;;;;;;15.53;78.00;101835.09;5021536;28;20076;-72
2022/05/26 03:17:11;;;;;;;18.98;7.75;;;;;;;15.56;77.84;101841.25;5017652;28;20049;-72
2022/05/26 03:19:37;;;;;;;18.95;7.85;;;;;;;15.48;78.48;101840.19;5023707;28;20476;-72
2022/05/26 03:22:02;;;;;;;19.63;7.47;;;;;;;15.52;77.88;101849.78;5021998;28;20030;-72
2022/05/26 03:24:27;;;;;;;23.95;8.32;;;;;;;15.53;77.91;101848.06;5021678;28;20403;-72
2022/05/26 03:26:53;;;;;;;22.00;8.18;;;;;;;15.45;78.52;101850.47;5018654;28;20480;-72
2022/05/26 03:29:18;;;;;;;21.70;7.72;;;;;;;15.47;78.29;101855.69;5021470;28;20434;-72
2022/05/26 03:31:44;;;;;;;21.25;7.38;;;;;;;15.46;78.20;101853.94;5025504;28;20080;-72
2022/05/26 03:42:22;;;;;;;19.65;7.60;;;;;;;15.41;78.11;101865.91;5017409;28;20519;-72
2022/05/26 03:44:48;;;;;;;22.65;7.95;;;;;;;15.35;78.55;101869.25;5020541;28;20025;-72
2022/05/26 03:47:13;;;;;;;25.33;7.78;;;;;;;15.40;78.60;101866.75;5016084;28;20030;-72
2022/05/26 03:49:39;;;;;;;25.60;7.47;;;;;;;15.40;78.35;101865.03;5017905;28;20045;-72
2022/05/26 03:52:05;;;;;;;19.73;7.03;;;;;;;15.37;78.57;101874.47;5015999;28;20065;-71
2022/05/26 03:54:30;;;;;;;22.08;6.93;;;;;;;15.38;78.84;101874.50;5023603;28;20403;-72
2022/05/26 03:56:56;;;;;;;21.50;7.20;;;;;;;15.35;78.65;101869.25;5019811;28;20014;-71
2022/05/26 03:59:21;;;;;;;21.42;6.88;;;;;;;15.32;78.47;101876.06;5022318;28;20072;-71
2022/05/26 04:01:47;;;;;;;26.48;7.32;;;;;;;15.26;78.69;101872.47;5024688;28;20021;-71
2022/05/26 04:04:12;;;;;;;23.85;7.05;;;;;;;15.29;78.78;101882.06;5016566;28;20037;-71
2022/05/26 04:06:38;;;;;;;26.33;7.10;;;;;;;15.31;78.90;101885.56;5026724;28;20033;-72
2022/05/26 04:09:03;;;;;;;22.70;7.15;;;;;;;15.28;78.93;101888.06;5019371;28;20084;-72
2022/05/26 04:11:30;;;;;;;25.50;7.18;;;;;;;15.26;79.32;101894.91;5019013;28;20119;-73
2022/05/26 04:13:56;;;;;;;22.63;7.10;;;;;;;15.26;78.82;101892.34;5022322;28;20041;-72
2022/05/26 04:16:22;;;;;;;20.58;5.78;;;;;;;15.28;79.00;101890.66;5023052;28;20036;-72
2022/05/26 04:18:48;;;;;;;23.60;6.10;;;;;;;15.30;79.40;101901.94;5022910;28;20043;-72
2022/05/26 04:21:14;;;;;;;22.85;6.25;;;;;;;15.26;79.16;101894.91;5023029;28;20037;-71
2022/05/26 04:23:40;;;;;;;20.30;6.20;;;;;;;15.22;79.37;101893.94;5023164;28;20416;-72
2022/05/26 04:26:07;;;;;;;25.17;5.35;;;;;;;15.29;78.85;101902.78;5021438;28;20060;-72
2022/05/26 04:28:34;;;;;;;22.75;6.30;;;;;;;15.28;79.37;101899.28;5024383;28;20035;-72
2022/05/26 04:31:00;;;;;;;25.02;5.97;;;;;;;15.26;79.14;101900.09;5024576;28;20043;-72
2022/05/26 04:33:26;;;;;;;22.05;5.68;;;;;;;15.30;78.96;101904.53;5022191;28;20137;-72
2022/05/26 04:35:52;;;;;;;19.30;5.40;;;;;;;15.27;78.95;101901.84;5024450;28;20034;-71
2022/05/26 04:38:19;;;;;;;21.45;5.95;;;;;;;15.26;78.95;101900.97;5027635;28;20117;-72
2022/05/26 04:40:45;;;;;;;26.50;6.13;;;;;;;15.23;79.23;101913.88;5023483;28;20037;-72
2022/05/26 04:43:11;;;;;;;23.55;5.65;;;;;;;15.22;79.51;101917.28;5027518;28;20439;-72
2022/05/26 04:45:36;;;;;;;22.85;5.90;;;;;;;15.26;79.07;101907.88;5017923;28;20033;-71
2022/05/26 04:48:03;;;;;;;20.40;5.78;;;;;;;15.25;79.05;101917.38;5019644;28;20025;-72
2022/05/26 04:50:28;;;;;;;24.13;6.00;;;;;;;15.21;79.86;101919.84;5022200;28;20021;-72
2022/05/26 04:52:54;;;;;;;24.35;6.25;;;;;;;15.22;79.49;101929.34;5026640;28;20041;-72
2022/05/26 04:55:19;;;;;;;26.55;6.07;;;;;;;15.29;79.26;101939.94;5018821;28;20030;-71
2022/05/26 04:57:45;;;;;;;19.33;5.68;;;;;;;15.28;79.15;101932.97;5026830;28;20476;-72
2022/05/26 05:00:13;;;;;;;19.67;5.65;;;;;;;15.33;79.26;101947.78;5023285;28;20112;-72
2022/05/26 05:02:39;;;;;;;21.95;5.85;;;;;;;15.27;79.82;101940.72;5020356;28;20033;-72
2022/05/26 05:05:06;;;;;;;22.08;5.93;;;;;;;15.32;79.32;101940.84;5020603;28;20080;-72
2022/05/26 05:07:31;;;;;;;26.50;5.72;;;;;;;15.29;80.12;101952.91;5027692;28;20033;-71
2022/05/26 05:09:57;;;;;;;27.80;6.07;;;;;;;15.32;79.38;101948.63;5018534;28;20054;-71
2022/05/26 05:12:24;;;;;;;19.60;5.50;;;;;;;15.37;78.89;101965.16;5026856;28;20443;-71
2022/05/26 05:14:52;;;;;;;26.40;5.57;;;;;;;15.35;79.41;101959.97;5024903;28;20365;-72
2022/05/26 05:17:20;;;;;;;27.30;5.80;;;;;;;15.38;79.23;101970.38;5022208;28;20018;-71
2022/05/26 05:19:47;;;;;;;20.73;5.70;;;;;;;15.38;79.24;101964.31;5021572;28;20025;-72
2022/05/26 05:22:37;;;;;;;20.15;5.90;;;;;;;15.41;79.40;101965.28;5024348;28;20032;-71
2022/05/26 05:25:16;;;;;;;20.70;5.88;;;;;;;15.41;79.65;101962.72;5023571;28;20040;-72
2022/05/26 05:27:48;;;;;;;20.40;5.75;;;;;;;15.42;79.53;101964.47;5016734;28;20025;-72
2022/05/26 05:30:49;;;;;;;24.13;6.13;;;;;;;15.47;79.06;101961.97;5019673;28;20461;-72
2022/05/26 05:33:21;;;;;;;19.75;5.50;;;;;;;15.48;79.64;101972.38;5021466;28;20046;-72
2022/05/26 05:35:49;;;;;;;18.45;5.15;;;;;;;15.48;79.13;101974.09;5022524;28;20112;-72
2022/05/26 05:38:16;;;;;;;23.42;5.80;;;;;;;15.49;79.46;101983.63;5021097;28;20029;-72
2022/05/26 05:40:42;;;;;;;18.77;5.25;;;;;;;15.48;79.79;101982.75;5019986;28;20048;-72
2022/05/26 05:43:07;;;;;;;20.08;4.88;;;;;;;15.52;79.39;101981.97;5019638;28;20730;-71
2022/05/26 05:45:33;;;;;;;18.65;5.47;;;;;;;15.53;79.02;101983.75;5025549;28;20116;-72
2022/05/26 05:47:58;;;;;;;22.88;5.65;;;;;;;15.54;79.16;101985.50;5025908;28;20039;-72
2022/05/26 05:50:24;;;;;;;21.90;5.32;;;;;;;15.60;79.04;101982.19;5022516;28;20081;-71
2022/05/26 05:52:49;;;;;;;17.33;5.80;;;;;;;15.60;79.34;101981.31;5022863;28;20033;-72
2022/05/26 05:55:15;;;;;;;21.40;5.43;;;;;;;15.63;78.84;101996.97;5025541;28;20033;-72
2022/05/26 05:57:40;;;;;;;21.42;5.70;;;;;;;15.60;79.14;101992.56;5026901;28;20117;-72
2022/05/26 06:00:07;;;;;;;23.52;5.38;;;;;;;15.62;79.53;101992.59;5020126;28;20033;-72
2022/05/26 06:02:33;;;;;;;19.38;5.22;;;;;;;15.68;79.15;101993.66;5025178;28;20713;-72
2022/05/26 06:04:58;;;;;;;22.10;5.40;;;;;;;15.73;79.56;101991.19;5024738;28;20499;-73
2022/05/26 06:07:24;;;;;;;19.98;5.40;;;;;;;15.81;79.25;101990.53;5023117;28;20036;-72
2022/05/26 06:09:50;;;;;;;19.92;5.40;;;;;;;15.90;79.06;101991.59;5019465;28;20032;-72
2022/05/26 06:12:16;;;;;;;20.27;5.68;;;;;;;15.96;78.57;102004.72;5017396;28;20045;-72
2022/05/26 06:14:43;;;;;;;18.10;5.60;;;;;;;16.01;78.64;102008.28;5016479;28;20052;-72
2022/05/26 06:17:12;;;;;;;18.88;5.05;;;;;;;16.04;78.26;102010.97;5021249;28;20495;-72
2022/05/26 06:19:38;;;;;;;;;;;;;;;16.14;77.54;102012.03;5020435;28;20017;-72
2022/05/26 06:22:15;;;;;;;17.38;5.28;;;;;;;15.99;77.69;102013.44;5022607;28;20288;-72
2022/05/26 06:24:40;;;;;;;22.77;5.63;;;;;;;15.99;77.75;102012.56;5020666;28;20052;-72
2022/05/26 06:29:53;;;;;;;23.80;6.22;;;;;;;15.99;77.40;102013.44;5018519;28;20142;-72
2022/05/26 06:37:49;;;;;;;19.83;5.00;;;;;;;16.21;76.85;102032.13;5015673;28;20060;-72
2022/05/26 06:40:15;;;;;;;23.42;5.70;;;;;;;16.25;77.28;102032.22;5014774;28;22618;-72
2022/05/26 06:42:41;;;;;;;17.35;5.90;;;;;;;16.27;76.43;102037.47;5013647;28;20030;-72
2022/05/26 06:45:06;;;;;;;19.00;5.70;;;;;;;16.20;76.77;102049.41;5016382;28;20083;-72
2022/05/26 06:47:32;;;;;;;20.60;5.75;;;;;;;16.25;75.52;102036.53;5016337;28;20034;-72
2022/05/26 06:49:57;;;;;;;14.75;4.93;;;;;;;16.23;75.68;102040.81;5018150;28;20067;-72
2022/05/26 06:52:24;;;;;;;16.20;5.22;;;;;;;16.26;76.11;102034.00;5012853;28;20032;-72
2022/05/26 06:54:50;;;;;;;20.02;6.05;;;;;;;16.35;76.27;102048.88;5017856;28;20103;-73
2022/05/26 06:57:16;;;;;;;17.90;5.82;;;;;;;16.44;76.15;102053.41;5018176;28;20029;-72
2022/05/26 06:59:42;;;;;;;16.67;5.22;;;;;;;16.52;75.56;102057.06;5029720;28;20034;-72
2022/05/26 07:02:10;;;;;;;19.75;5.40;;;;;;;16.59;75.07;102051.16;5026789;28;20037;-72
2022/05/26 07:04:37;;;;;;;16.58;5.22;;;;;;;16.68;74.62;102053.94;5026186;28;20101;-72
2022/05/26 07:07:03;;;;;;;17.73;5.45;;;;;;;16.73;74.77;102056.69;5026140;28;20495;-72
2022/05/26 07:09:29;;;;;;;17.30;5.05;;;;;;;16.76;73.75;102056.78;5029469;28;20112;-72
2022/05/26 07:11:54;;;;;;;17.60;5.18;;;;;;;16.83;74.50;102061.25;5018223;28;20060;-73
2022/05/26 07:14:20;;;;;;;14.00;5.00;;;;;;;16.91;72.94;102061.41;5017087;28;20030;-73
2022/05/26 07:16:46;;;;;;;18.92;4.82;;;;;;;17.10;73.01;102059.19;5018992;28;20121;-72
2022/05/26 07:19:13;;;;;;;14.95;4.63;;;;;;;17.11;71.60;102060.09;5017288;28;20028;-73
2022/05/26 07:21:43;;;;;;;15.05;4.72;;;;;;;17.22;71.13;102073.28;5011755;28;20056;-72
2022/05/26 07:24:09;;;;;;;16.13;5.07;;;;;;;17.36;71.04;102071.88;5014929;28;20041;-73
2022/05/26 07:26:34;;;;;;;13.20;4.47;;;;;;;17.45;71.05;102068.56;5016258;28;20440;-73
2022/05/26 07:29:00;;;;;;;14.73;4.72;;;;;;;17.48;69.32;102082.50;5012163;28;20072;-73
2022/05/26 07:31:26;;;;;;;11.00;3.75;;;;;;;17.42;68.41;102092.78;5013487;28;20030;-73
2022/05/26 07:33:51;;;;;;;14.77;4.43;;;;;;;17.36;68.88;102093.53;5016408;28;20034;-73
2022/05/26 07:41:48;;;;;;;12.27;3.83;;;;;;;17.51;68.75;102092.94;5024298;28;20511;-72
2022/05/26 07:44:13;;;;;;;;;;;;;;;17.65;69.63;102090.59;5027624;28;20487;-73
2022/05/26 07:46:39;;;;;;;14.05;4.07;;;;;;;17.72;67.73;102096.84;5022890;28;19920;-73
2022/05/26 07:49:05;;;;;;;12.90;3.83;;;;;;;17.76;67.38;102094.31;5015966;28;20076;-72
2022/05/26 07:51:31;;;;;;;12.35;4.10;;;;;;;17.84;67.10;102086.66;5023222;28;20029;-73
2022/05/26 07:53:56;;;;;;;16.17;4.55;;;;;;;17.98;68.11;102087.75;5016327;28;20048;-73
2022/05/26 07:56:25;;;;;;;14.10;4.28;;;;;;;18.15;67.72;102088.94;5030659;28;20056;-77
2022/05/26 07:58:50;;;;;;;14.38;4.22;;;;;;;18.30;66.38;102082.19;5019980;28;20162;-77
2022/05/26 08:01:16;;;;;;;15.73;4.28;;;;;;;18.33;65.23;102092.69;5013138;28;20476;-76
2022/05/26 08:03:41;;;;;;;12.57;3.67;;;;;;;18.39;65.10;102095.38;5019293;28;20065;-76
2022/05/26 08:06:06;;;;;;;10.48;3.45;;;;;;;18.51;64.94;102098.16;5025071;28;20079;-79
2022/05/26 08:08:33;;;;;;;11.27;3.53;;;;;;;18.62;63.36;102101.78;5010544;28;20053;-76
2022/05/26 08:10:59;;;;;;;13.90;3.30;;;;;;;18.66;63.67;102106.19;5010245;28;20049;-77
2022/05/26 08:13:25;;;;;;;10.80;3.70;;;;;;;18.72;63.67;102100.22;5016965;28;20403;-80
2022/05/26 08:15:50;;;;;;;10.75;3.90;;;;;;;18.69;64.21;102103.69;5013984;28;20512;-78
2022/05/26 08:18:16;;;;;;;14.65;3.90;;;;;;;18.57;62.46;102107.81;5015536;28;20033;-78
2022/05/26 08:20:42;;;;;;;14.80;3.60;;;;;;;18.51;63.71;102102.50;5016809;28;20051;-78
2022/05/26 08:23:07;;;;;;;14.65;3.90;;;;;;;18.51;64.79;102103.38;5032946;28;20484;-76
2022/05/26 08:25:34;;;;;;;10.35;3.75;;;;;;;18.58;63.31;102105.22;5014014;28;20041;-79
2022/05/26 08:27:59;;;;;;;11.60;3.17;;;;;;;18.75;65.25;102100.28;5021128;28;20041;-78
2022/05/26 08:30:25;;;;;;;10.55;2.90;;;;;;;18.84;62.34;102108.22;5014618;28;20021;-76
2022/05/26 08:32:53;;;;;;;8.98;3.03;;;;;;;18.92;62.14;102103.09;5008516;28;20036;-80
2022/05/26 08:35:18;;;;;;;9.27;2.83;;;;;;;18.93;62.04;102112.69;5020485;28;20032;-78
2022/05/26 08:37:44;;;;;;;7.47;2.40;;;;;;;18.87;61.45;102113.50;5019616;28;20030;-78
2022/05/26 08:40:29;;;;;;;10.27;2.40;;;;;;;18.83;60.77;102105.59;5014446;28;20117;-78
2022/05/26 08:42:54;;;;;;;11.25;2.80;;;;;;;18.91;62.29;102119.59;5013354;28;20037;-75
2022/05/26 08:45:20;;;;;;;11.80;3.15;;;;;;;18.97;62.18;102119.69;5015280;28;20496;-76
2022/05/26 08:47:48;;;;;;;10.43;2.65;;;;;;;19.07;62.30;102121.56;5013924;28;21694;-77
2022/05/26 08:50:26;;;;;;;8.70;2.60;;;;;;;19.15;62.17;102119.06;5013882;28;20405;-77
2022/05/26 08:53:10;;;;;;;7.57;2.45;;;;;;;19.14;60.62;102119.91;5007534;28;20034;-74
2022/05/26 08:55:47;;;;;;;9.60;2.53;;;;;;;19.17;62.33;102125.16;5015662;28;20461;-74
2022/05/26 08:58:22;;;;;;;8.27;2.50;;;;;;;19.26;61.65;102128.75;5023819;28;20018;-73
2022/05/26 09:00:50;;;;;;;7.93;2.72;;;;;;;19.35;61.45;102127.09;5017522;28;20061;-73
2022/05/26 09:03:29;;;;;;;8.37;2.53;;;;;;;19.47;61.14;102129.88;5018464;28;20029;-73
2022/05/26 09:06:01;;;;;;;7.07;2.25;;;;;;;19.59;60.24;102130.03;5013497;28;20030;-74
2022/05/26 09:14:05;;;;;;;10.40;2.90;;;;;;;19.53;60.44;102122.97;5017656;28;20542;-74
2022/05/26 09:16:42;;;;;;;7.68;3.15;;;;;;;19.73;60.43;102131.06;5013780;28;20030;-74
2022/05/26 09:19:13;;;;;;;7.82;2.40;;;;;;;19.78;57.56;102126.78;5012421;28;20026;-74
2022/05/26 09:21:39;;;;;;;8.23;2.58;;;;;;;19.82;57.77;102128.53;5016949;28;20041;-74
2022/05/26 09:24:26;;;;;;;7.78;2.40;;;;;;;19.78;58.50;102138.97;5017269;28;20026;-75
2022/05/26 09:26:54;;;;;;;8.65;2.60;;;;;;;19.79;57.97;102145.94;5016962;28;20756;-74
2022/05/26 09:29:27;;;;;;;7.60;2.50;;;;;;;19.93;59.52;102149.53;5021137;28;20021;-74
2022/05/26 09:31:54;;;;;;;9.60;3.30;;;;;;;19.81;57.40;102147.69;5019285;28;20033;-74
2022/05/26 09:34:25;;;;;;;6.55;2.58;;;;;;;19.76;58.32;102157.19;5014485;28;20038;-74
2022/05/26 09:36:59;;;;;;;7.43;2.78;;;;;;;19.83;58.59;102159.00;5022116;28;20642;-74
2022/05/26 09:39:45;;;;;;;10.90;2.80;;;;;;;19.82;58.77;102152.03;5028245;28;20021;-74
2022/05/26 09:42:16;;;;;;;8.20;3.00;;;;;;;19.67;58.10;102161.44;5021653;28;20092;-74
2022/05/26 09:45:17;;;;;;;8.05;2.58;;;;;;;19.56;58.50;102175.22;5023613;28;20112;-74
2022/05/26 09:47:57;;;;;;;9.52;2.22;;;;;;;19.66;57.87;102171.03;5008291;28;20057;-74
2022/05/26 09:50:35;;;;;;;7.80;2.00;;;;;;;19.67;56.96;102167.53;5029271;28;20060;-74
2022/05/26 09:53:03;;;;;;;7.78;2.10;;;;;;;19.59;56.98;102170.91;5022848;28;20033;-74
2022/05/26 09:55:43;;;;;;;8.43;2.47;;;;;;;19.52;57.40;102168.19;5016881;28;20037;-74
2022/05/26 09:58:13;;;;;;;7.97;1.98;;;;;;;19.44;58.24;102168.97;5024348;28;20026;-74
2022/05/26 10:00:42;;;;;;;9.52;2.00;;;;;;;19.66;57.60;102168.41;5025949;28;20474;-74
2022/05/26 10:03:26;;;;;;;;;;;;;;;19.84;58.46;102172.97;5021716;28;20054;-74
2022/05/26 10:06:00;;;;;;;6.38;2.10;;;;;;;19.93;56.47;102177.38;5038102;28;19921;-74
2022/05/26 10:08:36;;;;;;;7.43;2.20;;;;;;;19.97;54.93;102174.84;5025740;28;20041;-74
2022/05/26 10:11:10;;;;;;;6.57;1.73;;;;;;;19.93;54.58;102174.78;5025272;28;20072;-74
2022/05/26 10:14:05;;;;;;;7.70;2.10;;;;;;;19.87;54.81;102175.59;5027031;28;20029;-74
2022/05/26 10:16:40;;;;;;;5.88;1.70;;;;;;;19.81;54.93;102176.38;5014462;28;20033;-74
2022/05/26 10:19:20;;;;;;;10.70;1.90;;;;;;;19.93;54.79;102177.38;5019001;28;20030;-75
2022/05/26 10:21:46;;;;;;;6.68;1.70;;;;;;;20.02;54.90;102177.47;5025766;28;20048;-74
2022/05/26 10:24:23;;;;;;;7.97;1.80;;;;;;;20.06;54.50;102174.91;5018213;28;20373;-74
2022/05/26 10:26:49;;;;;;;5.10;1.50;;;;;;;19.97;54.60;102184.41;5019486;28;20034;-74
2022/05/26 10:29:23;;;;;;;9.57;2.15;;;;;;;19.97;55.11;102189.63;5023077;28;20396;-74
2022/05/26 10:32:38;;;;;;;6.03;1.50;;;;;;;19.95;53.66;102186.09;5020709;28;20028;-74
2022/05/26 10:35:24;;;;;;;4.07;1.30;;;;;;;20.01;53.67;102183.56;4947690;28;20035;-74
2022/05/26 10:38:08;;;;;;;5.35;1.30;;;;;;;20.28;54.46;102180.34;4949446;28;20054;-74
2022/05/26 10:40:36;;;;;;;8.30;1.58;;;;;;;20.42;52.63;102170.88;4997921;28;20056;-74
2022/05/26 10:43:12;;;;;;;5.93;1.77;;;;;;;20.47;53.74;102179.66;5016367;28;20370;-75
2022/05/26 10:45:41;;;;;;;7.18;1.83;;;;;;;20.40;53.02;102171.75;5025521;28;20025;-75
2022/05/26 10:48:39;;;;;;;7.22;1.58;;;;;;;20.56;53.00;102178.84;5021865;28;20116;-75
2022/05/26 10:51:15;;;;;;;6.03;1.80;;;;;;;20.73;52.84;102171.13;5017674;28;20029;-74
2022/05/26 10:54:04;;;;;;;9.60;1.83;;;;;;;20.74;51.70;102171.13;5022489;28;20037;-74
2022/05/26 10:56:32;;;;;;;5.32;1.63;;;;;;;20.76;51.81;102172.03;5021506;28;20057;-75
2022/05/26 10:59:07;;;;;;;6.03;1.43;;;;;;;20.79;51.52;102182.50;5021908;28;21726;-74
2022/05/26 11:01:42;;;;;;;4.35;1.20;;;;;;;20.69;51.46;102180.72;5026574;28;20063;-74
2022/05/26 11:04:23;;;;;;;6.80;1.45;;;;;;;20.57;51.24;102183.25;5025992;28;20033;-74
2022/05/26 11:06:53;;;;;;;8.25;1.73;;;;;;;20.38;51.03;102183.88;5023004;28;21280;-74
2022/05/26 11:09:35;;;;;;;4.68;1.58;;;;;;;20.35;52.02;102196.06;5027019;28;20025;-74
2022/05/26 11:12:06;;;;;;;9.18;1.80;;;;;;;20.22;52.57;102189.00;5018692;28;20124;-75
2022/05/26 11:17:33;;;;;;;7.15;1.95;;;;;;;20.15;52.94;102192.41;5026047;28;20474;-74
2022/05/26 11:20:04;;;;;;;5.43;2.10;;;;;;;20.07;52.68;102178.38;5027378;28;20025;-75
2022/05/26 11:22:30;;;;;;;6.68;1.65;;;;;;;20.04;52.78;102187.09;5028646;28;20033;-74
2022/05/26 11:24:58;;;;;;;5.35;1.52;;;;;;;20.13;52.52;102183.66;5026362;28;20045;-75
2022/05/26 11:27:42;;;;;;;4.47;1.80;;;;;;;20.27;52.96;102182.09;5024118;28;20403;-75
2022/05/26 11:36:08;;;;;;;9.80;2.28;;;;;;;20.26;53.48;102171.59;5024512;28;20104;-75
2022/05/26 11:38:40;;;;;;;7.35;2.47;;;;;;;20.15;52.60;102168.91;5025405;28;20057;-75
2022/05/26 11:41:08;;;;;;;6.50;2.08;;;;;;;20.23;53.06;102156.78;5026135;28;20037;-75
2022/05/26 11:43:58;;;;;;;6.07;2.10;;;;;;;20.43;53.57;102163.91;5018804;28;20483;-75
2022/05/26 11:46:47;;;;;;;5.75;2.33;;;;;;;20.50;53.73;102158.78;5024174;28;20029;-75
2022/05/26 11:49:43;;;;;;;7.70;2.78;;;;;;;20.46;52.00;102169.22;5020815;28;20029;-74
2022/05/26 11:52:23;;;;;;;10.10;3.92;;;;;;;20.35;52.63;102177.78;5024465;28;20033;-75
2022/05/26 11:55:01;;;;;;;7.07;3.65;;;;;;;20.23;52.48;102175.06;5022416;28;20132;-74
2022/05/26 11:57:40;;;;;;;7.60;3.50;;;;;;;20.21;53.57;102168.97;5021496;28;20473;-75
2022/05/26 12:00:14;;;;;;;11.00;4.30;;;;;;;20.24;54.12;102170.72;5027576;28;20078;-75
2022/05/26 12:02:40;;;;;;;8.48;4.40;;;;;;;20.33;54.49;102173.44;5021922;28;20488;-74
2022/05/26 12:05:28;;;;;;;9.32;4.40;;;;;;;20.43;54.70;102158.69;5023523;28;20030;-74
2022/05/26 12:07:55;;;;;;;9.95;6.35;;;;;;;20.49;55.14;102141.34;5024582;28;20033;-74
2022/05/26 12:10:27;;;;;;;11.93;6.97;;;;;;;20.58;54.86;102146.66;5021844;28;20121;-74
2022/05/26 12:13:23;;;;;;;11.02;6.72;;;;;;;20.69;54.95;102149.34;5027847;28;20483;-74
2022/05/26 12:16:05;;;;;;;12.93;7.15;;;;;;;20.74;54.75;102150.22;5025807;28;20021;-75
2022/05/26 12:18:47;;;;;;;13.88;7.70;;;;;;;20.75;54.07;102141.56;5025337;28;20049;-73
2022/05/26 12:21:34;;;;;;;13.20;6.82;;;;;;;20.71;53.00;102139.78;5025962;28;20032;-74